sensor_id;sensor_type;location;lat;lon;timestamp;pressure;altitude;pressure_sealevel;temperature;humidity
69198;BME280;56311;50.298;8.514;2023-05-07T00:00:00;97750.0;;;13.9;100.0
69198;BME280;56311;50.298;8.514;2023-05-07T00:02:00;97740.0;;;13.8;100.0
69198;BME280;56311;50.298;8.514;2023-05-07T00:04:00;97740.0;;;13.8;100.0
69198;BME280;56311;50.298;8.514;2023-05-07T00:06:00;97740.0;;;13.8;100.0
69198;BME280;56311;50.298;8.514;2023-05-07T00:14:00;97750.0;;;13.7;100.0
69198;BME280;56311;50.298;8.514;2023-05-07T00:16:00;97750.0;;;13.7;100.0
69198;BME280;56311;50.298;8.514;2023-05-07T00:18:00;97750.0;;;13.7;100.0
69198;BME280;56311;50.298;8.514;2023-05-07T00:20:00;97750.0;;;13.7;100.0
69198;BME280;56311;50.298;8.514;2023-05-07T00:22:00;97750.0;;;13.6;100.0
69198;BME280;56311;50.298;8.514;2023-05-07T00:24:01;97740.0;;;13.6;100.0
69198;BME280;56311;50.298;8.514;2023-05-07T00:26:00;97740.0;;;13.6;100.0
69198;BME280;56311;50.298;8.514;2023-05-07T00:28:00;97740.0;;;13.6;100.0
69198;BME280;56311;50.298;8.514;2023-05-07T00:30:00;97740.0;;;13.6;100.0
69198;BME280;56311;50.298;8.514;2023-05-07T00:32:00;97740.0;;;13.5;100.0
69198;BME280;56311;50.298;8.514;2023-05-07T00:34:00;97740.0;;;13.6;100.0
69198;BME280;56311;50.298;8.514;2023-05-07T00:36:00;97740.0;;;13.6;100.0
69198;BME280;56311;50.298;8.514;2023-05-07T00:38:01;97730.0;;;13.6;100.0
69198;BME280;56311;50.298;8.514;2023-05-07T00:40:00;97730.0;;;13.6;100.0
69198;BME280;56311;50.298;8.514;2023-05-07T00:42:00;97740.0;;;13.5;100.0
69198;BME280;56311;50.298;8.514;2023-05-07T00:44:00;97730.0;;;13.5;100.0
69198;BME280;56311;50.298;8.514;2023-05-07T00:46:00;97730.0;;;13.5;100.0
69198;BME280;56311;50.298;8.514;2023-05-07T00:48:01;97730.0;;;13.5;100.0
69198;BME280;56311;50.298;8.514;2023-05-07T00:50:00;97730.0;;;13.5;100.0
69198;BME280;56311;50.298;8.514;2023-05-07T00:52:00;97730.0;;;13.5;100.0
69198;BME280;56311;50.298;8.514;2023-05-07T00:54:02;97730.0;;;13.5;100.0
69198;BME280;56311;50.298;8.514;2023-05-07T00:56:00;97730.0;;;13.5;100.0
69198;BME280;56311;50.298;8.514;2023-05-07T00:58:00;97720.0;;;13.5;100.0
69198;BME280;56311;50.298;8.514;2023-05-07T01:00:00;97720.0;;;13.4;100.0
69198;BME280;56311;50.298;8.514;2023-05-07T01:02:00;97720.0;;;13.4;100.0
69198;BME280;56311;50.298;8.514;2023-05-07T01:04:00;97720.0;;;13.4;100.0
69198;BME280;56311;50.298;8.514;2023-05-07T01:06:01;97720.0;;;13.4;100.0
69198;BME280;56311;50.298;8.514;2023-05-07T01:08:01;97720.0;;;13.4;100.0
69198;BME280;56311;50.298;8.514;2023-05-07T01:10:01;97720.0;;;13.4;100.0
69198;BME280;56311;50.298;8.514;2023-05-07T01:12:00;97720.0;;;13.4;100.0
69198;BME280;56311;50.298;8.514;2023-05-07T01:14:01;97720.0;;;13.4;100.0
69198;BME280;56311;50.298;8.514;2023-05-07T01:16:00;97720.0;;;13.4;100.0
69198;BME280;56311;50.298;8.514;2023-05-07T01:18:00;97720.0;;;13.4;100.0
69198;BME280;56311;50.298;8.514;2023-05-07T01:20:00;97720.0;;;13.4;100.0
69198;BME280;56311;50.298;8.514;2023-05-07T01:22:03;97720.0;;;13.3;100.0
69198;BME280;56311;50.298;8.514;2023-05-07T01:24:00;97720.0;;;13.3;100.0
69198;BME280;56311;50.298;8.514;2023-05-07T01:26:00;97720.0;;;13.3;100.0
69198;BME280;56311;50.298;8.514;2023-05-07T01:28:00;97720.0;;;13.2;100.0
69198;BME280;56311;50.298;8.514;2023-05-07T01:30:00;97720.0;;;13.2;100.0
69198;BME280;56311;50.298;8.514;2023-05-07T01:32:01;97720.0;;;13.3;100.0
69198;BME280;56311;50.298;8.514;2023-05-07T01:34:01;97720.0;;;13.3;100.0
69198;BME280;56311;50.298;8.514;2023-05-07T01:36:01;97720.0;;;13.3;100.0
69198;BME280;56311;50.298;8.514;2023-05-07T01:38:00;97720.0;;;13.3;100.0
69198;BME280;56311;50.298;8.514;2023-05-07T01:40:01;97720.0;;;13.3;100.0
69198;BME280;56311;50.298;8.514;2023-05-07T01:42:00;97710.0;;;13.2;100.0
69198;BME280;56311;50.298;8.514;2023-05-07T01:44:01;97720.0;;;13.3;100.0
69198;BME280;56311;50.298;8.514;2023-05-07T01:46:01;97710.0;;;13.2;100.0
69198;BME280;56311;50.298;8.514;2023-05-07T01:48:01;97710.0;;;13.2;100.0
69198;BME280;56311;50.298;8.514;2023-05-07T01:50:00;97700.0;;;13.2;100.0
69198;BME280;56311;50.298;8.514;2023-05-07T01:52:00;97700.0;;;13.2;100.0
69198;BME280;56311;50.298;8.514;2023-05-07T01:54:00;97700.0;;;13.1;100.0
69198;BME280;56311;50.298;8.514;2023-05-07T01:56:00;97700.0;;;13.1;100.0
69198;BME280;56311;50.298;8.514;2023-05-07T01:58:00;97700.0;;;13.1;100.0
69198;BME280;56311;50.298;8.514;2023-05-07T02:00:00;97700.0;;;13.1;100.0
69198;BME280;56311;50.298;8.514;2023-05-07T02:02:00;97710.0;;;13.0;100.0
69198;BME280;56311;50.298;8.514;2023-05-07T02:04:00;97700.0;;;13.1;100.0
69198;BME280;56311;50.298;8.514;2023-05-07T02:06:00;97700.0;;;13.1;100.0
69198;BME280;56311;50.298;8.514;2023-05-07T02:08:00;97700.0;;;13.1;100.0
69198;BME280;56311;50.298;8.514;2023-05-07T02:10:00;97710.0;;;13.1;100.0
69198;BME280;56311;50.298;8.514;2023-05-07T02:12:00;97710.0;;;13.1;100.0
69198;BME280;56311;50.298;8.514;2023-05-07T02:14:00;97710.0;;;13.1;100.0
69198;BME280;56311;50.298;8.514;2023-05-07T02:16:00;97710.0;;;13.1;100.0
69198;BME280;56311;50.298;8.514;2023-05-07T02:18:01;97710.0;;;13.1;100.0
69198;BME280;56311;50.298;8.514;2023-05-07T02:20:00;97720.0;;;13.1;100.0
69198;BME280;56311;50.298;8.514;2023-05-07T02:22:00;97720.0;;;13.0;100.0
69198;BME280;56311;50.298;8.514;2023-05-07T02:24:00;97720.0;;;13.0;100.0
69198;BME280;56311;50.298;8.514;2023-05-07T02:26:00;97720.0;;;13.0;100.0
69198;BME280;56311;50.298;8.514;2023-05-07T02:28:00;97720.0;;;13.0;100.0
69198;BME280;56311;50.298;8.514;2023-05-07T02:30:00;97710.0;;;13.0;100.0
69198;BME280;56311;50.298;8.514;2023-05-07T02:32:00;97720.0;;;12.9;100.0
69198;BME280;56311;50.298;8.514;2023-05-07T02:34:00;97720.0;;;12.9;100.0
69198;BME280;56311;50.298;8.514;2023-05-07T02:36:05;97720.0;;;12.9;100.0
69198;BME280;56311;50.298;8.514;2023-05-07T02:38:00;97720.0;;;12.9;100.0
69198;BME280;56311;50.298;8.514;2023-05-07T02:40:00;97720.0;;;12.8;100.0
69198;BME280;56311;50.298;8.514;2023-05-07T02:42:00;97720.0;;;12.8;100.0
69198;BME280;56311;50.298;8.514;2023-05-07T02:44:00;97710.0;;;12.8;100.0
69198;BME280;56311;50.298;8.514;2023-05-07T02:46:01;97720.0;;;12.8;100.0
69198;BME280;56311;50.298;8.514;2023-05-07T02:48:00;97720.0;;;12.8;100.0
69198;BME280;56311;50.298;8.514;2023-05-07T02:50:00;97720.0;;;12.8;100.0
69198;BME280;56311;50.298;8.514;2023-05-07T02:52:00;97720.0;;;12.7;100.0
69198;BME280;56311;50.298;8.514;2023-05-07T02:54:00;97720.0;;;12.8;100.0
69198;BME280;56311;50.298;8.514;2023-05-07T02:56:01;97720.0;;;12.8;100.0
69198;BME280;56311;50.298;8.514;2023-05-07T02:58:00;97720.0;;;12.8;100.0
69198;BME280;56311;50.298;8.514;2023-05-07T03:00:10;97730.0;;;12.8;100.0
69198;BME280;56311;50.298;8.514;2023-05-07T03:02:00;97730.0;;;12.8;100.0
69198;BME280;56311;50.298;8.514;2023-05-07T03:04:00;97720.0;;;12.8;100.0
69198;BME280;56311;50.298;8.514;2023-05-07T03:06:00;97720.0;;;12.8;100.0
69198;BME280;56311;50.298;8.514;2023-05-07T03:08:00;97720.0;;;12.8;100.0
69198;BME280;56311;50.298;8.514;2023-05-07T03:10:00;97720.0;;;12.8;100.0
69198;BME280;56311;50.298;8.514;2023-05-07T03:12:00;97720.0;;;12.8;100.0
69198;BME280;56311;50.298;8.514;2023-05-07T03:14:00;97720.0;;;12.7;100.0
69198;BME280;56311;50.298;8.514;2023-05-07T03:16:00;97710.0;;;12.6;100.0
69198;BME280;56311;50.298;8.514;2023-05-07T03:18:00;97710.0;;;12.6;100.0
69198;BME280;56311;50.298;8.514;2023-05-07T03:20:00;97720.0;;;12.6;100.0
69198;BME280;56311;50.298;8.514;2023-05-07T03:22:00;97720.0;;;12.6;100.0
69198;BME280;56311;50.298;8.514;2023-05-07T03:24:00;97720.0;;;12.5;100.0
69198;BME280;56311;50.298;8.514;2023-05-07T03:26:00;97710.0;;;12.5;100.0
69198;BME280;56311;50.298;8.514;2023-05-07T03:28:00;97710.0;;;12.5;100.0
69198;BME280;56311;50.298;8.514;2023-05-07T03:30:00;97710.0;;;12.6;100.0
69198;BME280;56311;50.298;8.514;2023-05-07T03:32:00;97700.0;;;12.6;100.0
69198;BME280;56311;50.298;8.514;2023-05-07T03:34:00;97710.0;;;12.6;100.0
69198;BME280;56311;50.298;8.514;2023-05-07T03:36:00;97710.0;;;12.6;100.0
69198;BME280;56311;50.298;8.514;2023-05-07T03:38:00;97700.0;;;12.6;100.0
69198;BME280;56311;50.298;8.514;2023-05-07T03:40:00;97700.0;;;12.6;100.0
69198;BME280;56311;50.298;8.514;2023-05-07T03:42:00;97710.0;;;12.6;100.0
69198;BME280;56311;50.298;8.514;2023-05-07T03:44:00;97700.0;;;12.6;100.0
69198;BME280;56311;50.298;8.514;2023-05-07T03:46:00;97700.0;;;12.6;100.0
69198;BME280;56311;50.298;8.514;2023-05-07T03:48:00;97700.0;;;12.6;100.0
69198;BME280;56311;50.298;8.514;2023-05-07T03:50:00;97700.0;;;12.6;100.0
69198;BME280;56311;50.298;8.514;2023-05-07T03:52:00;97700.0;;;12.5;100.0
69198;BME280;56311;50.298;8.514;2023-05-07T03:54:00;97700.0;;;12.5;100.0
69198;BME280;56311;50.298;8.514;2023-05-07T03:56:00;97700.0;;;12.5;100.0
69198;BME280;56311;50.298;8.514;2023-05-07T03:58:00;97700.0;;;12.5;100.0
69198;BME280;56311;50.298;8.514;2023-05-07T04:00:00;97700.0;;;12.5;100.0
69198;BME280;56311;50.298;8.514;2023-05-07T04:02:00;97700.0;;;12.5;100.0
69198;BME280;56311;50.298;8.514;2023-05-07T04:04:00;97700.0;;;12.5;100.0
69198;BME280;56311;50.298;8.514;2023-05-07T04:06:00;97710.0;;;12.5;100.0
69198;BME280;56311;50.298;8.514;2023-05-07T04:08:01;97710.0;;;12.4;100.0
69198;BME280;56311;50.298;8.514;2023-05-07T04:10:00;97700.0;;;12.4;100.0
69198;BME280;56311;50.298;8.514;2023-05-07T04:12:00;97700.0;;;12.5;100.0
69198;BME280;56311;50.298;8.514;2023-05-07T04:14:00;97700.0;;;12.5;100.0
69198;BME280;56311;50.298;8.514;2023-05-07T04:16:02;97710.0;;;12.5;100.0
69198;BME280;56311;50.298;8.514;2023-05-07T04:18:00;97710.0;;;12.5;100.0
69198;BME280;56311;50.298;8.514;2023-05-07T04:20:00;97710.0;;;12.5;100.0
69198;BME280;56311;50.298;8.514;2023-05-07T04:22:00;97720.0;;;12.5;100.0
69198;BME280;56311;50.298;8.514;2023-05-07T04:24:02;97720.0;;;12.5;100.0
69198;BME280;56311;50.298;8.514;2023-05-07T04:26:00;97730.0;;;12.5;100.0
69198;BME280;56311;50.298;8.514;2023-05-07T04:28:00;97730.0;;;12.6;100.0
69198;BME280;56311;50.298;8.514;2023-05-07T04:30:00;97720.0;;;12.6;100.0
69198;BME280;56311;50.298;8.514;2023-05-07T04:32:00;97730.0;;;12.6;100.0
69198;BME280;56311;50.298;8.514;2023-05-07T04:34:00;97730.0;;;12.6;100.0
69198;BME280;56311;50.298;8.514;2023-05-07T04:36:02;97730.0;;;12.6;100.0
69198;BME280;56311;50.298;8.514;2023-05-07T04:38:00;97730.0;;;12.6;100.0
69198;BME280;56311;50.298;8.514;2023-05-07T04:40:00;97740.0;;;12.6;100.0
69198;BME280;56311;50.298;8.514;2023-05-07T04:42:00;97740.0;;;12.6;100.0
69198;BME280;56311;50.298;8.514;2023-05-07T04:44:00;97740.0;;;12.6;100.0
69198;BME280;56311;50.298;8.514;2023-05-07T04:46:00;97740.0;;;12.6;100.0
69198;BME280;56311;50.298;8.514;2023-05-07T04:48:00;97740.0;;;12.7;100.0
69198;BME280;56311;50.298;8.514;2023-05-07T04:50:00;97740.0;;;12.7;100.0
69198;BME280;56311;50.298;8.514;2023-05-07T04:52:00;97740.0;;;12.8;100.0
69198;BME280;56311;50.298;8.514;2023-05-07T04:54:00;97740.0;;;12.8;100.0
69198;BME280;56311;50.298;8.514;2023-05-07T04:56:00;97740.0;;;12.8;100.0
69198;BME280;56311;50.298;8.514;2023-05-07T04:58:00;97740.0;;;12.8;100.0
69198;BME280;56311;50.298;8.514;2023-05-07T05:00:00;97750.0;;;12.8;100.0
69198;BME280;56311;50.298;8.514;2023-05-07T05:02:00;97750.0;;;12.9;100.0
69198;BME280;56311;50.298;8.514;2023-05-07T05:04:00;97750.0;;;12.9;100.0
69198;BME280;56311;50.298;8.514;2023-05-07T05:06:00;97760.0;;;12.9;100.0
69198;BME280;56311;50.298;8.514;2023-05-07T05:08:00;97760.0;;;13.0;100.0
69198;BME280;56311;50.298;8.514;2023-05-07T05:10:01;97760.0;;;13.1;100.0
69198;BME280;56311;50.298;8.514;2023-05-07T05:12:00;97760.0;;;13.1;100.0
69198;BME280;56311;50.298;8.514;2023-05-07T05:14:00;97770.0;;;13.2;100.0
69198;BME280;56311;50.298;8.514;2023-05-07T05:16:00;97770.0;;;13.2;100.0
69198;BME280;56311;50.298;8.514;2023-05-07T05:18:00;97760.0;;;13.2;100.0
69198;BME280;56311;50.298;8.514;2023-05-07T05:20:00;97770.0;;;13.2;100.0
69198;BME280;56311;50.298;8.514;2023-05-07T05:22:00;97770.0;;;13.2;100.0
69198;BME280;56311;50.298;8.514;2023-05-07T05:24:00;97770.0;;;13.2;100.0
69198;BME280;56311;50.298;8.514;2023-05-07T05:26:00;97770.0;;;13.2;100.0
69198;BME280;56311;50.298;8.514;2023-05-07T05:28:00;97770.0;;;13.2;100.0
69198;BME280;56311;50.298;8.514;2023-05-07T05:30:00;97780.0;;;13.2;100.0
69198;BME280;56311;50.298;8.514;2023-05-07T05:32:00;97780.0;;;13.3;100.0
69198;BME280;56311;50.298;8.514;2023-05-07T05:34:02;97770.0;;;13.2;100.0
69198;BME280;56311;50.298;8.514;2023-05-07T05:36:00;97770.0;;;13.2;100.0
69198;BME280;56311;50.298;8.514;2023-05-07T05:38:00;97770.0;;;13.2;100.0
69198;BME280;56311;50.298;8.514;2023-05-07T05:40:00;97770.0;;;13.2;100.0
69198;BME280;56311;50.298;8.514;2023-05-07T05:42:00;97780.0;;;13.3;100.0
69198;BME280;56311;50.298;8.514;2023-05-07T05:44:00;97770.0;;;13.3;100.0
69198;BME280;56311;50.298;8.514;2023-05-07T05:46:00;97770.0;;;13.4;100.0
69198;BME280;56311;50.298;8.514;2023-05-07T05:48:00;97770.0;;;13.4;100.0
69198;BME280;56311;50.298;8.514;2023-05-07T05:50:01;97770.0;;;13.4;100.0
69198;BME280;56311;50.298;8.514;2023-05-07T05:52:00;97770.0;;;13.6;100.0
69198;BME280;56311;50.298;8.514;2023-05-07T05:54:00;97770.0;;;13.7;100.0
69198;BME280;56311;50.298;8.514;2023-05-07T05:56:00;97770.0;;;13.7;100.0
69198;BME280;56311;50.298;8.514;2023-05-07T05:58:00;97770.0;;;13.9;100.0
69198;BME280;56311;50.298;8.514;2023-05-07T06:00:00;97780.0;;;14.0;100.0
69198;BME280;56311;50.298;8.514;2023-05-07T06:02:00;97780.0;;;14.1;100.0
69198;BME280;56311;50.298;8.514;2023-05-07T06:04:00;97780.0;;;14.1;100.0
69198;BME280;56311;50.298;8.514;2023-05-07T06:06:00;97780.0;;;14.1;100.0
69198;BME280;56311;50.298;8.514;2023-05-07T06:08:01;97780.0;;;14.1;100.0
69198;BME280;56311;50.298;8.514;2023-05-07T06:10:00;97780.0;;;14.1;100.0
69198;BME280;56311;50.298;8.514;2023-05-07T06:12:00;97780.0;;;14.2;100.0
69198;BME280;56311;50.298;8.514;2023-05-07T06:14:00;97780.0;;;14.2;100.0
69198;BME280;56311;50.298;8.514;2023-05-07T06:16:00;97780.0;;;14.0;100.0
69198;BME280;56311;50.298;8.514;2023-05-07T06:18:00;97780.0;;;14.0;100.0
69198;BME280;56311;50.298;8.514;2023-05-07T06:20:00;97780.0;;;14.0;100.0
69198;BME280;56311;50.298;8.514;2023-05-07T06:22:00;97780.0;;;13.9;100.0
69198;BME280;56311;50.298;8.514;2023-05-07T06:24:00;97780.0;;;13.9;100.0
69198;BME280;56311;50.298;8.514;2023-05-07T06:26:00;97780.0;;;14.0;100.0
69198;BME280;56311;50.298;8.514;2023-05-07T06:28:00;97780.0;;;14.1;100.0
69198;BME280;56311;50.298;8.514;2023-05-07T06:30:00;97780.0;;;14.2;100.0
69198;BME280;56311;50.298;8.514;2023-05-07T06:32:06;97790.0;;;14.3;100.0
69198;BME280;56311;50.298;8.514;2023-05-07T06:34:00;97790.0;;;14.4;100.0
69198;BME280;56311;50.298;8.514;2023-05-07T06:36:00;97790.0;;;14.6;100.0
69198;BME280;56311;50.298;8.514;2023-05-07T06:38:00;97790.0;;;14.7;100.0
69198;BME280;56311;50.298;8.514;2023-05-07T06:40:00;97790.0;;;14.7;100.0
69198;BME280;56311;50.298;8.514;2023-05-07T06:42:01;97800.0;;;14.8;100.0
69198;BME280;56311;50.298;8.514;2023-05-07T06:44:00;97800.0;;;14.9;100.0
69198;BME280;56311;50.298;8.514;2023-05-07T06:46:00;97800.0;;;14.9;100.0
69198;BME280;56311;50.298;8.514;2023-05-07T06:48:00;97800.0;;;14.8;100.0
69198;BME280;56311;50.298;8.514;2023-05-07T06:50:00;97800.0;;;14.9;100.0
69198;BME280;56311;50.298;8.514;2023-05-07T06:52:00;97810.0;;;15.0;100.0
69198;BME280;56311;50.298;8.514;2023-05-07T06:54:00;97800.0;;;15.1;100.0
69198;BME280;56311;50.298;8.514;2023-05-07T06:56:00;97800.0;;;15.3;100.0
69198;BME280;56311;50.298;8.514;2023-05-07T06:58:00;97800.0;;;15.5;100.0
69198;BME280;56311;50.298;8.514;2023-05-07T07:00:00;97800.0;;;15.6;100.0
69198;BME280;56311;50.298;8.514;2023-05-07T07:02:00;97800.0;;;15.7;100.0
69198;BME280;56311;50.298;8.514;2023-05-07T07:04:00;97790.0;;;15.9;100.0
69198;BME280;56311;50.298;8.514;2023-05-07T07:06:01;97790.0;;;15.9;100.0
69198;BME280;56311;50.298;8.514;2023-05-07T07:08:00;97800.0;;;16.0;100.0
69198;BME280;56311;50.298;8.514;2023-05-07T07:10:00;97790.0;;;15.9;100.0
69198;BME280;56311;50.298;8.514;2023-05-07T07:12:00;97790.0;;;15.9;100.0
69198;BME280;56311;50.298;8.514;2023-05-07T07:14:01;97800.0;;;16.0;100.0
69198;BME280;56311;50.298;8.514;2023-05-07T07:16:00;97800.0;;;15.9;100.0
69198;BME280;56311;50.298;8.514;2023-05-07T07:18:00;97800.0;;;15.9;100.0
69198;BME280;56311;50.298;8.514;2023-05-07T07:20:00;97800.0;;;16.1;100.0
69198;BME280;56311;50.298;8.514;2023-05-07T07:22:00;97800.0;;;16.3;100.0
69198;BME280;56311;50.298;8.514;2023-05-07T07:24:00;97800.0;;;16.4;100.0
69198;BME280;56311;50.298;8.514;2023-05-07T07:26:00;97800.0;;;16.5;100.0
69198;BME280;56311;50.298;8.514;2023-05-07T07:28:00;97810.0;;;16.4;100.0
69198;BME280;56311;50.298;8.514;2023-05-07T07:30:00;97810.0;;;16.5;100.0
69198;BME280;56311;50.298;8.514;2023-05-07T07:32:00;97810.0;;;16.5;99.5
69198;BME280;56311;50.298;8.514;2023-05-07T07:34:00;97810.0;;;16.6;98.5
69198;BME280;56311;50.298;8.514;2023-05-07T07:36:00;97820.0;;;16.8;97.4
69198;BME280;56311;50.298;8.514;2023-05-07T07:38:01;97820.0;;;16.7;96.5
69198;BME280;56311;50.298;8.514;2023-05-07T07:40:00;97810.0;;;16.7;98.3
69198;BME280;56311;50.298;8.514;2023-05-07T07:42:00;97810.0;;;16.7;98.1
69198;BME280;56311;50.298;8.514;2023-05-07T07:44:00;97810.0;;;16.6;97.5
69198;BME280;56311;50.298;8.514;2023-05-07T07:46:00;97810.0;;;16.6;97.8
69198;BME280;56311;50.298;8.514;2023-05-07T07:48:00;97810.0;;;16.5;99.0
69198;BME280;56311;50.298;8.514;2023-05-07T07:50:00;97810.0;;;16.5;99.8
69198;BME280;56311;50.298;8.514;2023-05-07T07:52:00;97810.0;;;16.4;100.0
69198;BME280;56311;50.298;8.514;2023-05-07T07:54:00;97820.0;;;16.5;99.8
69198;BME280;56311;50.298;8.514;2023-05-07T07:56:00;97820.0;;;16.7;97.5
69198;BME280;56311;50.298;8.514;2023-05-07T07:58:00;97820.0;;;16.9;99.3
69198;BME280;56311;50.298;8.514;2023-05-07T08:00:00;97820.0;;;16.9;99.8
69198;BME280;56311;50.298;8.514;2023-05-07T08:02:00;97820.0;;;16.9;98.5
69198;BME280;56311;50.298;8.514;2023-05-07T08:04:00;97810.0;;;17.0;97.4
69198;BME280;56311;50.298;8.514;2023-05-07T08:06:00;97810.0;;;17.0;96.2
69198;BME280;56311;50.298;8.514;2023-05-07T08:08:00;97810.0;;;17.1;97.3
69198;BME280;56311;50.298;8.514;2023-05-07T08:10:00;97810.0;;;17.0;93.3
69198;BME280;56311;50.298;8.514;2023-05-07T08:12:00;97810.0;;;17.1;95.6
69198;BME280;56311;50.298;8.514;2023-05-07T08:14:00;97810.0;;;17.3;94.1
69198;BME280;56311;50.298;8.514;2023-05-07T08:16:00;97810.0;;;17.5;92.8
69198;BME280;56311;50.298;8.514;2023-05-07T08:18:01;97810.0;;;17.5;92.9
69198;BME280;56311;50.298;8.514;2023-05-07T08:20:00;97810.0;;;17.5;91.6
69198;BME280;56311;50.298;8.514;2023-05-07T08:22:00;97810.0;;;17.5;94.1
69198;BME280;56311;50.298;8.514;2023-05-07T08:24:00;97810.0;;;17.5;91.8
69198;BME280;56311;50.298;8.514;2023-05-07T08:26:00;97800.0;;;17.4;93.6
69198;BME280;56311;50.298;8.514;2023-05-07T08:28:01;97810.0;;;17.4;93.3
69198;BME280;56311;50.298;8.514;2023-05-07T08:30:00;97810.0;;;17.2;94.6
69198;BME280;56311;50.298;8.514;2023-05-07T08:32:00;97810.0;;;17.4;93.7
69198;BME280;56311;50.298;8.514;2023-05-07T08:34:00;97810.0;;;17.4;92.1
69198;BME280;56311;50.298;8.514;2023-05-07T08:36:00;97810.0;;;17.6;93.3
69198;BME280;56311;50.298;8.514;2023-05-07T08:38:00;97810.0;;;17.6;91.8
69198;BME280;56311;50.298;8.514;2023-05-07T08:40:00;97810.0;;;17.6;92.2
69198;BME280;56311;50.298;8.514;2023-05-07T08:42:00;97810.0;;;17.7;93.8
69198;BME280;56311;50.298;8.514;2023-05-07T08:44:03;97810.0;;;17.8;94.9
69198;BME280;56311;50.298;8.514;2023-05-07T08:46:01;97810.0;;;17.8;95.3
69198;BME280;56311;50.298;8.514;2023-05-07T08:48:02;97810.0;;;17.7;90.7
69198;BME280;56311;50.298;8.514;2023-05-07T08:50:01;97820.0;;;17.8;88.8
69198;BME280;56311;50.298;8.514;2023-05-07T08:52:01;97820.0;;;18.0;85.1
69198;BME280;56311;50.298;8.514;2023-05-07T08:54:01;97820.0;;;18.2;87.8
69198;BME280;56311;50.298;8.514;2023-05-07T08:56:01;97820.0;;;18.4;82.8
69198;BME280;56311;50.298;8.514;2023-05-07T08:58:00;97820.0;;;18.6;82.5
69198;BME280;56311;50.298;8.514;2023-05-07T09:00:00;97820.0;;;18.5;83.1
69198;BME280;56311;50.298;8.514;2023-05-07T09:02:00;97830.0;;;18.4;83.5
69198;BME280;56311;50.298;8.514;2023-05-07T09:04:00;97830.0;;;18.3;82.4
69198;BME280;56311;50.298;8.514;2023-05-07T09:06:00;97820.0;;;18.5;81.8
69198;BME280;56311;50.298;8.514;2023-05-07T09:08:02;97820.0;;;18.7;83.5
69198;BME280;56311;50.298;8.514;2023-05-07T09:10:01;97820.0;;;18.7;82.2
69198;BME280;56311;50.298;8.514;2023-05-07T09:12:01;97820.0;;;18.7;80.6
69198;BME280;56311;50.298;8.514;2023-05-07T09:14:00;97810.0;;;18.5;81.0
69198;BME280;56311;50.298;8.514;2023-05-07T09:16:10;97820.0;;;18.5;82.2
69198;BME280;56311;50.298;8.514;2023-05-07T09:18:00;97820.0;;;18.5;81.1
69198;BME280;56311;50.298;8.514;2023-05-07T09:20:02;97820.0;;;18.6;85.3
69198;BME280;56311;50.298;8.514;2023-05-07T09:22:01;97820.0;;;18.4;80.9
69198;BME280;56311;50.298;8.514;2023-05-07T09:24:00;97810.0;;;18.4;80.6
69198;BME280;56311;50.298;8.514;2023-05-07T09:26:01;97820.0;;;18.5;82.5
69198;BME280;56311;50.298;8.514;2023-05-07T09:28:02;97820.0;;;18.5;80.9
69198;BME280;56311;50.298;8.514;2023-05-07T09:30:03;97820.0;;;18.5;78.3
69198;BME280;56311;50.298;8.514;2023-05-07T09:32:01;97820.0;;;18.5;81.0
69198;BME280;56311;50.298;8.514;2023-05-07T09:34:00;97820.0;;;18.5;82.6
69198;BME280;56311;50.298;8.514;2023-05-07T09:36:02;97810.0;;;18.5;81.8
69198;BME280;56311;50.298;8.514;2023-05-07T09:38:00;97820.0;;;18.6;84.0
69198;BME280;56311;50.298;8.514;2023-05-07T09:40:00;97820.0;;;18.6;80.9
69198;BME280;56311;50.298;8.514;2023-05-07T09:42:00;97820.0;;;18.6;84.6
69198;BME280;56311;50.298;8.514;2023-05-07T09:44:01;97820.0;;;18.8;83.7
69198;BME280;56311;50.298;8.514;2023-05-07T09:46:03;97820.0;;;18.8;80.3
69198;BME280;56311;50.298;8.514;2023-05-07T09:48:05;97820.0;;;18.8;80.3
69198;BME280;56311;50.298;8.514;2023-05-07T09:50:03;97820.0;;;18.9;79.9
69198;BME280;56311;50.298;8.514;2023-05-07T09:52:01;97810.0;;;18.9;82.3
69198;BME280;56311;50.298;8.514;2023-05-07T09:54:01;97810.0;;;18.9;81.9
69198;BME280;56311;50.298;8.514;2023-05-07T09:56:00;97810.0;;;18.8;81.1
69198;BME280;56311;50.298;8.514;2023-05-07T09:58:01;97810.0;;;18.7;80.8
69198;BME280;56311;50.298;8.514;2023-05-07T10:00:02;97810.0;;;18.8;81.0
69198;BME280;56311;50.298;8.514;2023-05-07T10:02:01;97810.0;;;19.0;83.8
69198;BME280;56311;50.298;8.514;2023-05-07T10:04:01;97820.0;;;19.1;80.3
69198;BME280;56311;50.298;8.514;2023-05-07T10:06:00;97820.0;;;19.3;79.6
69198;BME280;56311;50.298;8.514;2023-05-07T10:08:00;97820.0;;;19.5;77.5
69198;BME280;56311;50.298;8.514;2023-05-07T10:10:01;97810.0;;;19.8;77.6
69198;BME280;56311;50.298;8.514;2023-05-07T10:12:01;97810.0;;;20.0;73.4
69198;BME280;56311;50.298;8.514;2023-05-07T10:14:01;97810.0;;;20.1;76.5
69198;BME280;56311;50.298;8.514;2023-05-07T10:16:00;97820.0;;;20.2;74.7
69198;BME280;56311;50.298;8.514;2023-05-07T10:18:00;97820.0;;;20.0;73.9
69198;BME280;56311;50.298;8.514;2023-05-07T10:20:00;97810.0;;;20.1;73.7
69198;BME280;56311;50.298;8.514;2023-05-07T10:22:04;97820.0;;;20.1;74.6
69198;BME280;56311;50.298;8.514;2023-05-07T10:24:04;97820.0;;;20.2;75.5
69198;BME280;56311;50.298;8.514;2023-05-07T10:26:02;97820.0;;;20.3;72.9
69198;BME280;56311;50.298;8.514;2023-05-07T10:28:04;97820.0;;;20.4;72.3
69198;BME280;56311;50.298;8.514;2023-05-07T10:30:09;97820.0;;;20.4;71.2
69198;BME280;56311;50.298;8.514;2023-05-07T10:32:11;97810.0;;;20.7;73.9
69198;BME280;56311;50.298;8.514;2023-05-07T10:34:01;97810.0;;;21.0;73.5
69198;BME280;56311;50.298;8.514;2023-05-07T10:36:01;97810.0;;;21.2;71.3
69198;BME280;56311;50.298;8.514;2023-05-07T10:38:00;97810.0;;;21.4;69.2
69198;BME280;56311;50.298;8.514;2023-05-07T10:40:01;97820.0;;;21.4;70.5
69198;BME280;56311;50.298;8.514;2023-05-07T10:42:07;97810.0;;;21.3;71.6
69198;BME280;56311;50.298;8.514;2023-05-07T10:44:00;97820.0;;;21.3;68.6
69198;BME280;56311;50.298;8.514;2023-05-07T10:46:11;97820.0;;;21.4;66.4
69198;BME280;56311;50.298;8.514;2023-05-07T10:48:09;97820.0;;;21.5;67.1
69198;BME280;56311;50.298;8.514;2023-05-07T10:52:11;97820.0;;;21.5;66.3
69198;BME280;56311;50.298;8.514;2023-05-07T11:00:00;97810.0;;;21.4;66.1
69198;BME280;56311;50.298;8.514;2023-05-07T11:02:01;97810.0;;;21.8;66.7
69198;BME280;56311;50.298;8.514;2023-05-07T11:04:12;97810.0;;;22.0;64.3
69198;BME280;56311;50.298;8.514;2023-05-07T11:06:11;97800.0;;;22.2;62.5
69198;BME280;56311;50.298;8.514;2023-05-07T11:08:02;97810.0;;;22.1;63.0